createdAt,value
2018-07-15T00:01:09.981Z,7.60
2018-07-15T00:03:38.363Z,7.28
2018-07-15T00:06:06.926Z,6.70
2018-07-15T00:08:35.359Z,7.12
2018-07-15T00:11:03.754Z,7.72
2018-07-15T00:13:32.181Z,7.47
2018-07-15T00:16:00.550Z,7.20
2018-07-15T00:18:28.998Z,6.87
2018-07-15T00:20:57.391Z,7.10
2018-07-15T00:23:25.798Z,7.15
2018-07-15T00:25:54.176Z,6.58
2018-07-15T00:28:22.591Z,6.55
2018-07-15T00:30:50.948Z,6.33
2018-07-15T00:33:19.301Z,8.58
2018-07-15T00:35:47.698Z,6.97
2018-07-15T00:38:16.133Z,6.83
2018-07-15T00:40:44.490Z,7.67
2018-07-15T00:43:12.894Z,7.47
2018-07-15T00:45:41.242Z,7.42
2018-07-15T00:48:09.924Z,7.35
2018-07-15T00:50:38.281Z,7.30
2018-07-15T00:53:06.731Z,6.78
2018-07-15T00:55:35.156Z,7.47
2018-07-15T00:58:03.784Z,8.55
2018-07-15T01:00:37.466Z,7.65
2018-07-15T01:03:05.898Z,6.65
2018-07-15T01:05:34.298Z,7.45
2018-07-15T01:08:02.398Z,7.10
2018-07-15T01:10:30.805Z,6.45
2018-07-15T01:12:59.216Z,6.85
2018-07-15T01:15:27.570Z,6.83
2018-07-15T01:17:55.959Z,6.70
2018-07-15T01:20:24.339Z,6.67
2018-07-15T01:22:52.897Z,6.20
2018-07-15T01:25:21.323Z,6.70
2018-07-15T01:27:49.849Z,6.55
2018-07-15T01:30:18.283Z,6.40
2018-07-15T01:32:46.680Z,5.90
2018-07-15T01:35:15.067Z,6.08
2018-07-15T01:37:43.422Z,5.87
2018-07-15T01:40:11.782Z,5.95
2018-07-15T01:42:40.222Z,5.65
2018-07-15T01:45:08.582Z,6.60
2018-07-15T01:47:36.957Z,6.83
2018-07-15T01:50:05.355Z,5.95
2018-07-15T01:52:33.855Z,6.15
2018-07-15T01:55:02.508Z,7.15
2018-07-15T01:57:30.881Z,6.60
2018-07-15T01:59:58.974Z,6.28
2018-07-15T02:02:27.380Z,6.95
2018-07-15T02:04:55.742Z,7.03
2018-07-15T02:07:24.131Z,6.83
2018-07-15T02:09:52.727Z,6.25
2018-07-15T02:12:21.103Z,7.58
2018-07-15T02:14:49.486Z,6.53
2018-07-15T02:17:17.864Z,7.55
2018-07-15T02:19:46.266Z,7.12
2018-07-15T02:22:14.625Z,6.33
2018-07-15T02:24:43.042Z,7.12
2018-07-15T02:27:11.496Z,7.42
2018-07-15T02:29:39.858Z,7.50
2018-07-15T02:32:08.305Z,8.08
2018-07-15T02:34:36.714Z,8.03
2018-07-15T02:37:05.276Z,6.97
2018-07-15T02:39:33.651Z,6.90
2018-07-15T02:42:02.043Z,6.83
2018-07-15T02:44:30.421Z,6.55
2018-07-15T02:46:58.490Z,6.42
2018-07-15T02:49:26.903Z,6.42
2018-07-15T02:51:55.305Z,6.83
2018-07-15T02:54:23.678Z,6.45
2018-07-15T02:56:52.137Z,6.78
2018-07-15T02:59:20.514Z,6.65
2018-07-15T03:01:48.907Z,6.35
2018-07-15T03:04:17.273Z,6.65
2018-07-15T03:06:45.650Z,6.75
2018-07-15T03:09:14.068Z,6.60
2018-07-15T03:11:42.435Z,6.50
2018-07-15T03:14:10.831Z,6.33
2018-07-15T03:16:39.220Z,6.45
2018-07-15T03:19:07.611Z,6.50
2018-07-15T03:21:35.973Z,6.35
2018-07-15T03:24:04.350Z,7.25
2018-07-15T03:26:32.761Z,7.58
2018-07-15T03:29:01.176Z,6.55
2018-07-15T03:31:29.580Z,6.25
2018-07-15T03:33:58.187Z,7.08
2018-07-15T03:36:26.486Z,7.17
2018-07-15T03:38:54.830Z,6.60
2018-07-15T03:41:23.186Z,6.70
2018-07-15T03:43:51.534Z,6.60
2018-07-15T03:46:20.197Z,6.67
2018-07-15T03:48:48.528Z,6.78
2018-07-15T03:51:16.933Z,6.75
2018-07-15T03:53:45.376Z,6.40
2018-07-15T03:56:13.726Z,6.45
2018-07-15T03:58:42.050Z,6.67
2018-07-15T04:01:10.413Z,5.90
2018-07-15T04:03:38.853Z,6.70
2018-07-15T04:06:07.258Z,6.83
2018-07-15T04:08:35.655Z,6.55
2018-07-15T04:11:04.313Z,6.83
2018-07-15T04:13:32.657Z,6.67
2018-07-15T04:16:01.023Z,6.92
2018-07-15T04:18:29.353Z,6.55
2018-07-15T04:20:57.711Z,6.55
2018-07-15T04:23:26.105Z,6.85
2018-07-15T04:25:54.463Z,6.40
2018-07-15T04:28:22.853Z,6.28
2018-07-15T04:30:51.201Z,6.47
2018-07-15T04:33:19.531Z,6.50
2018-07-15T04:35:47.920Z,6.00
2018-07-15T04:38:16.286Z,6.83
2018-07-15T04:40:44.699Z,6.42
2018-07-15T04:43:12.985Z,6.03
2018-07-15T04:45:41.345Z,6.05
2018-07-15T04:48:09.682Z,6.70
2018-07-15T04:50:38.050Z,6.62
2018-07-15T04:53:06.379Z,6.37
2018-07-15T04:55:34.740Z,6.50
2018-07-15T04:58:03.061Z,6.35
2018-07-15T05:00:31.410Z,6.78
2018-07-15T05:02:59.738Z,5.90
2018-07-15T05:05:28.156Z,6.10
2018-07-15T05:07:56.471Z,6.62
2018-07-15T05:10:24.858Z,6.50
2018-07-15T05:12:53.234Z,6.15
2018-07-15T05:15:21.621Z,5.92
2018-07-15T05:17:49.948Z,6.10
2018-07-15T05:20:18.309Z,6.35
2018-07-15T05:22:46.645Z,6.33
2018-07-15T05:25:15.019Z,5.85
2018-07-15T05:27:43.346Z,5.65
2018-07-15T05:30:11.714Z,5.58
2018-07-15T05:32:40.072Z,5.95
2018-07-15T05:35:08.771Z,6.05
2018-07-15T05:37:37.903Z,6.70
2018-07-15T05:40:06.256Z,6.60
2018-07-15T05:42:37.662Z,6.53
2018-07-15T05:45:06.034Z,7.28
2018-07-15T05:47:34.428Z,6.60
2018-07-15T05:50:02.814Z,6.53
2018-07-15T05:52:31.215Z,6.70
2018-07-15T05:54:59.597Z,6.65
2018-07-15T05:57:27.988Z,6.70
2018-07-15T05:59:56.359Z,6.20
2018-07-15T06:02:24.768Z,6.45
2018-07-15T06:04:53.090Z,6.40
2018-07-15T06:07:21.452Z,6.58
2018-07-15T06:09:49.918Z,6.40
2018-07-15T06:12:18.312Z,6.30
2018-07-15T06:14:46.662Z,6.50
2018-07-15T06:17:15.096Z,6.37
2018-07-15T06:19:43.374Z,5.75
2018-07-15T06:22:11.758Z,6.17
2018-07-15T06:24:40.254Z,5.87
2018-07-15T06:27:08.826Z,5.55
2018-07-15T06:29:37.165Z,6.05
2018-07-15T06:32:05.694Z,5.72
2018-07-15T06:34:34.045Z,6.10
2018-07-15T06:37:03.188Z,5.30
2018-07-15T06:39:31.555Z,5.60
2018-07-15T06:42:00.073Z,5.55
2018-07-15T06:44:28.403Z,6.85
2018-07-15T06:46:56.750Z,6.25
2018-07-15T06:49:25.113Z,7.53
2018-07-15T06:51:53.644Z,5.95
2018-07-15T06:54:22.018Z,5.78
2018-07-15T06:56:50.402Z,6.80
2018-07-15T06:59:18.753Z,6.92
2018-07-15T07:01:47.173Z,6.08
2018-07-15T07:04:15.561Z,6.00
2018-07-15T07:06:44.023Z,6.70
2018-07-15T07:09:12.377Z,6.83
2018-07-15T07:11:40.783Z,6.53
2018-07-15T07:14:09.177Z,5.55
2018-07-15T07:16:37.642Z,5.30
2018-07-15T07:19:06.226Z,5.50
2018-07-15T07:21:34.665Z,5.62
2018-07-15T07:24:03.029Z,5.50
2018-07-15T07:26:31.388Z,5.30
2018-07-15T07:28:59.770Z,5.25
2018-07-15T07:31:28.124Z,5.85
2018-07-15T07:33:56.549Z,6.00
2018-07-15T07:36:24.943Z,5.30
2018-07-15T07:38:53.533Z,5.03
2018-07-15T07:41:21.904Z,5.10
2018-07-15T07:43:50.311Z,4.67
2018-07-15T07:46:18.722Z,4.80
2018-07-15T07:48:47.115Z,4.75
2018-07-15T07:51:15.461Z,5.17
2018-07-15T07:53:43.973Z,5.17
2018-07-15T07:56:12.383Z,4.65
2018-07-15T07:58:40.762Z,4.87
2018-07-15T08:01:09.210Z,5.70
2018-07-15T08:03:38.271Z,5.20
2018-07-15T08:06:06.656Z,5.20
2018-07-15T08:08:35.260Z,5.10
2018-07-15T08:11:03.631Z,5.20
2018-07-15T08:13:32.321Z,6.37
2018-07-15T08:16:00.738Z,6.95
2018-07-15T08:18:29.130Z,8.03
2018-07-15T08:20:57.525Z,7.00
2018-07-15T08:23:25.962Z,8.75
2018-07-15T08:25:54.637Z,7.15
2018-07-15T08:28:23.092Z,8.23
2018-07-15T08:31:11.044Z,8.48
2018-07-15T08:33:39.826Z,7.62
2018-07-15T08:36:08.485Z,8.18
2018-07-15T08:38:36.950Z,8.28
2018-07-15T08:41:05.364Z,9.58
2018-07-15T08:43:33.730Z,7.90
2018-07-15T08:46:02.879Z,6.28
2018-07-15T08:48:31.503Z,5.78
2018-07-15T08:50:59.969Z,7.30
2018-07-15T08:53:28.422Z,5.97
2018-07-15T08:55:56.890Z,6.25
2018-07-15T08:58:25.037Z,5.62
2018-07-15T09:00:53.613Z,6.00
2018-07-15T09:03:22.177Z,5.95
2018-07-15T09:05:50.352Z,5.05
2018-07-15T09:08:18.838Z,4.75
2018-07-15T09:10:47.233Z,5.37
2018-07-15T09:13:15.637Z,5.40
2018-07-15T09:15:46.251Z,5.70
2018-07-15T09:18:14.717Z,5.50
2018-07-15T09:20:43.084Z,5.37
2018-07-15T09:23:11.512Z,5.28
2018-07-15T09:25:39.888Z,5.50
2018-07-15T09:28:08.269Z,5.55
2018-07-15T09:30:36.731Z,5.65
2018-07-15T09:33:05.419Z,5.22
2018-07-15T09:35:33.857Z,6.20
2018-07-15T09:38:02.302Z,6.75
2018-07-15T09:40:30.737Z,5.87
2018-07-15T09:42:59.091Z,5.28
2018-07-15T09:45:27.499Z,5.70
2018-07-15T09:47:56.050Z,5.37
2018-07-15T09:50:24.452Z,6.00
2018-07-15T09:52:52.820Z,5.20
2018-07-15T09:55:21.257Z,5.45
2018-07-15T09:57:49.337Z,5.75
2018-07-15T10:00:23.034Z,5.20
2018-07-15T10:02:51.473Z,4.67
2018-07-15T10:05:19.855Z,4.90
2018-07-15T10:07:48.237Z,5.28
2018-07-15T10:10:19.057Z,4.92
2018-07-15T10:12:51.089Z,4.42
2018-07-15T10:15:22.696Z,4.17
2018-07-15T10:17:52.776Z,4.70
2018-07-15T10:20:22.665Z,5.33
2018-07-15T10:22:51.389Z,4.45
2018-07-15T10:25:19.466Z,4.33
2018-07-15T10:27:47.798Z,3.70
2018-07-15T10:30:16.187Z,3.90
2018-07-15T10:32:44.545Z,4.00
2018-07-15T10:35:13.010Z,4.20
2018-07-15T10:37:41.429Z,3.90
2018-07-15T10:40:09.534Z,4.47
2018-07-15T10:42:37.940Z,5.58
2018-07-15T10:45:06.355Z,3.98
2018-07-15T10:47:34.711Z,3.10
2018-07-15T10:50:03.110Z,3.70
2018-07-15T10:52:31.514Z,3.72
2018-07-15T10:54:59.898Z,3.55
2018-07-15T10:57:28.258Z,4.00
2018-07-15T10:59:56.329Z,4.17
2018-07-15T11:02:24.649Z,3.40
2018-07-15T11:04:53.053Z,3.80
2018-07-15T11:07:21.400Z,4.40
2018-07-15T11:09:49.797Z,4.10
2018-07-15T11:12:18.208Z,4.50
2018-07-15T11:14:46.355Z,3.40
2018-07-15T11:17:14.755Z,3.35
2018-07-15T11:19:43.202Z,4.25
2018-07-15T11:22:12.231Z,3.35
2018-07-15T11:24:42.841Z,3.70
2018-07-15T11:27:11.863Z,3.58
2018-07-15T11:29:40.416Z,3.62
2018-07-15T11:32:08.934Z,3.42
2018-07-15T11:34:37.110Z,3.15
2018-07-15T11:37:05.706Z,3.30
2018-07-15T11:39:34.189Z,3.60
2018-07-15T11:42:02.651Z,3.60
2018-07-15T11:44:31.029Z,3.25
2018-07-15T11:46:59.385Z,3.58
2018-07-15T11:49:27.719Z,2.70
2018-07-15T11:51:56.117Z,2.92
2018-07-15T11:54:24.514Z,2.95
2018-07-15T11:56:52.967Z,2.92
2018-07-15T11:59:21.313Z,2.70
2018-07-15T12:01:49.981Z,2.90
2018-07-15T12:04:18.282Z,3.17
2018-07-15T12:06:46.724Z,2.80
2018-07-15T12:09:14.784Z,2.83
2018-07-15T12:11:43.149Z,2.80
2018-07-15T12:14:11.478Z,2.83
2018-07-15T12:16:39.558Z,2.70
2018-07-15T12:19:07.963Z,2.72
2018-07-15T12:21:36.344Z,2.80
2018-07-15T12:24:05.414Z,2.50
2018-07-15T12:26:33.856Z,2.92
2018-07-15T12:29:02.215Z,2.90
2018-07-15T12:31:30.622Z,2.90
2018-07-15T12:33:59.005Z,3.08
2018-07-15T12:36:27.356Z,2.65
2018-07-15T12:38:55.754Z,2.77
2018-07-15T12:41:24.237Z,3.52
2018-07-15T12:43:53.073Z,2.35
2018-07-15T12:46:21.479Z,2.33
2018-07-15T12:48:49.560Z,2.55
2018-07-15T12:51:18.008Z,2.60
2018-07-15T12:53:46.390Z,2.90
2018-07-15T12:56:14.828Z,2.70
2018-07-15T12:58:43.258Z,3.08
2018-07-15T13:01:11.389Z,2.92
2018-07-15T13:03:39.754Z,3.05
2018-07-15T13:06:08.197Z,3.80
2018-07-15T13:08:36.595Z,3.60
2018-07-15T13:11:05.041Z,3.40
2018-07-15T13:13:33.448Z,3.42
2018-07-15T13:16:02.162Z,3.40
2018-07-15T13:18:30.534Z,3.67
2018-07-15T13:20:58.911Z,3.80
2018-07-15T13:23:27.355Z,3.40
2018-07-15T13:25:55.842Z,3.90
2018-07-15T13:28:24.240Z,3.83
2018-07-15T13:30:52.340Z,3.77
2018-07-15T13:33:20.713Z,4.08
2018-07-15T13:35:49.148Z,4.22
2018-07-15T13:38:17.555Z,4.20
2018-07-15T13:40:45.979Z,4.00
2018-07-15T13:43:14.413Z,4.17
2018-07-15T13:45:42.846Z,4.15
2018-07-15T13:48:11.401Z,4.53
2018-07-15T13:50:39.806Z,4.10
2018-07-15T13:53:08.256Z,4.25
2018-07-15T13:55:36.943Z,3.40
2018-07-15T13:58:05.342Z,4.12
2018-07-15T14:00:33.726Z,3.95
2018-07-15T14:03:02.196Z,4.30
2018-07-15T14:05:30.564Z,4.03
2018-07-15T14:07:58.973Z,4.00
2018-07-15T14:10:27.388Z,3.37
2018-07-15T14:12:55.813Z,4.08
2018-07-15T14:15:23.934Z,4.08
2018-07-15T14:17:52.356Z,3.70
2018-07-15T14:20:20.713Z,4.78
2018-07-15T14:22:49.223Z,5.37
2018-07-15T14:25:17.620Z,4.25
2018-07-15T14:27:46.012Z,4.37
2018-07-15T14:30:14.386Z,7.08
2018-07-15T14:32:42.880Z,8.45
2018-07-15T14:35:11.250Z,7.67
2018-07-15T14:37:39.714Z,6.45
2018-07-15T14:40:08.056Z,4.75
2018-07-15T14:42:36.506Z,4.15
2018-07-15T14:45:05.202Z,4.33
2018-07-15T14:47:33.581Z,4.17
2018-07-15T14:50:01.937Z,4.92
2018-07-15T14:52:30.307Z,4.90
2018-07-15T14:54:58.658Z,4.70
2018-07-15T14:57:33.842Z,4.50
2018-07-15T15:00:02.812Z,4.50
2018-07-15T15:02:31.198Z,4.37
2018-07-15T15:04:59.650Z,4.05
2018-07-15T15:07:28.795Z,5.05
2018-07-15T15:09:57.852Z,5.03
2018-07-15T15:12:26.830Z,5.62
2018-07-15T15:14:56.788Z,4.83
2018-07-15T15:17:25.395Z,4.87
2018-07-15T15:19:54.825Z,4.80
2018-07-15T15:22:23.268Z,4.75
2018-07-15T15:24:52.137Z,4.62
2018-07-15T15:27:20.977Z,4.30
2018-07-15T15:29:50.605Z,4.28
2018-07-15T15:32:19.606Z,4.15
2018-07-15T15:34:49.296Z,4.37
2018-07-15T15:37:18.229Z,4.70
2018-07-15T15:39:47.268Z,4.97
2018-07-15T15:42:15.780Z,5.40
2018-07-15T15:44:44.375Z,4.95
2018-07-15T15:47:13.018Z,4.25
2018-07-15T15:49:41.604Z,4.83
2018-07-15T15:52:10.998Z,4.37
2018-07-15T15:54:39.915Z,4.72
2018-07-15T15:57:09.496Z,4.30
2018-07-15T15:59:38.758Z,4.67
2018-07-15T16:02:07.505Z,5.37
2018-07-15T16:04:36.361Z,4.80
2018-07-15T16:07:04.790Z,4.58
2018-07-15T16:09:33.202Z,4.53
2018-07-15T16:12:02.222Z,4.40
2018-07-15T16:14:31.134Z,4.33
2018-07-15T16:17:00.240Z,4.15
2018-07-15T16:19:29.114Z,4.65
2018-07-15T16:21:57.604Z,4.40
2018-07-15T16:24:26.848Z,5.03
2018-07-15T16:26:55.246Z,5.12
2018-07-15T16:29:24.175Z,5.00
2018-07-15T16:31:52.726Z,4.87
2018-07-15T16:34:23.059Z,4.90
2018-07-15T16:36:51.959Z,4.30
2018-07-15T16:39:21.158Z,3.85
2018-07-15T16:41:50.371Z,3.87
2018-07-15T16:44:19.012Z,3.70
2018-07-15T16:46:47.381Z,4.08
2018-07-15T16:49:16.253Z,3.30
2018-07-15T16:51:44.621Z,3.62
2018-07-15T16:54:13.532Z,3.58
2018-07-15T16:56:42.919Z,3.85
2018-07-15T16:59:12.050Z,3.95
2018-07-15T17:01:41.022Z,4.03
2018-07-15T17:04:09.431Z,4.12
2018-07-15T17:06:37.821Z,4.00
2018-07-15T17:09:06.922Z,3.72
2018-07-15T17:11:35.974Z,3.98
2018-07-15T17:14:04.647Z,3.70
2018-07-15T17:16:33.037Z,4.65
2018-07-15T17:19:01.415Z,4.70
2018-07-15T17:21:29.874Z,4.42
2018-07-15T17:23:58.381Z,4.40
2018-07-15T17:26:26.870Z,4.87
2018-07-15T17:28:55.388Z,15.25
2018-07-15T17:31:23.787Z,9.58
2018-07-15T17:33:52.321Z,8.53
2018-07-15T17:36:20.446Z,8.48
2018-07-15T17:38:48.792Z,8.78
2018-07-15T17:41:17.358Z,7.15
2018-07-15T17:43:45.791Z,6.62
2018-07-15T17:46:14.253Z,6.50
2018-07-15T17:48:42.691Z,6.62
2018-07-15T17:51:11.076Z,5.47
2018-07-15T17:53:39.437Z,5.60
2018-07-15T17:56:08.208Z,4.95
2018-07-15T17:58:37.210Z,4.45
2018-07-15T18:01:05.563Z,4.80
2018-07-15T18:03:33.921Z,4.50
2018-07-15T18:06:02.006Z,4.80
2018-07-15T18:08:30.476Z,4.47
2018-07-15T18:10:58.890Z,5.10
2018-07-15T18:13:27.246Z,5.60
2018-07-15T18:15:55.650Z,5.75
2018-07-15T18:18:23.990Z,6.25
2018-07-15T18:20:52.656Z,6.83
2018-07-15T18:23:21.219Z,5.97
2018-07-15T18:25:49.691Z,5.70
2018-07-15T18:28:18.077Z,5.30
2018-07-15T18:30:46.514Z,4.67
2018-07-15T18:33:15.010Z,5.78
2018-07-15T18:35:43.437Z,10.38
2018-07-15T18:38:11.872Z,8.13
2018-07-15T18:40:41.039Z,6.33
2018-07-15T18:43:09.417Z,4.97
2018-07-15T18:45:37.771Z,4.70
2018-07-15T18:48:06.112Z,4.10
2018-07-15T18:50:34.976Z,3.95
2018-07-15T18:53:03.970Z,4.50
2018-07-15T18:55:32.685Z,3.90
2018-07-15T18:58:01.038Z,3.27
2018-07-15T19:00:29.525Z,3.35
2018-07-15T19:02:57.906Z,3.30
2018-07-15T19:05:26.255Z,3.12
2018-07-15T19:07:54.667Z,3.05
2018-07-15T19:10:23.047Z,3.00
2018-07-15T19:12:51.442Z,3.17
2018-07-15T19:15:19.785Z,3.15
2018-07-15T19:17:48.182Z,2.98
2018-07-15T19:20:16.530Z,3.10
2018-07-15T19:22:44.929Z,3.08
2018-07-15T19:25:14.679Z,3.33
2018-07-15T19:27:43.273Z,2.95
2018-07-15T19:30:13.495Z,3.52
2018-07-15T19:32:41.914Z,3.35
2018-07-15T19:35:10.357Z,3.83
2018-07-15T19:37:39.091Z,4.03
2018-07-15T19:40:07.500Z,3.98
2018-07-15T19:42:35.987Z,3.60
2018-07-15T19:45:04.620Z,4.03
2018-07-15T19:47:33.004Z,4.05
2018-07-15T19:50:02.254Z,3.95
2018-07-15T19:52:30.771Z,4.50
2018-07-15T19:54:59.159Z,4.00
2018-07-15T19:57:27.795Z,4.40
2018-07-15T19:59:56.233Z,4.03
2018-07-15T20:02:24.631Z,5.05
2018-07-15T20:04:52.998Z,4.60
2018-07-15T20:07:23.392Z,4.50
2018-07-15T20:09:51.788Z,4.75
2018-07-15T20:12:20.169Z,4.85
2018-07-15T20:14:48.550Z,4.83
2018-07-15T20:17:16.978Z,5.12
2018-07-15T20:19:45.418Z,4.42
2018-07-15T20:22:14.220Z,4.78
2018-07-15T20:24:42.993Z,5.05
2018-07-15T20:27:11.369Z,5.12
2018-07-15T20:29:39.750Z,5.03
2018-07-15T20:32:08.162Z,5.60
2018-07-15T20:34:36.694Z,4.92
2018-07-15T20:37:05.117Z,5.30
2018-07-15T20:39:33.461Z,5.30
2018-07-15T20:42:01.907Z,5.00
2018-07-15T20:44:30.290Z,4.50
2018-07-15T20:46:58.742Z,4.55
2018-07-15T20:49:27.109Z,4.08
2018-07-15T20:51:55.513Z,4.42
2018-07-15T20:54:23.906Z,3.90
2018-07-15T20:56:52.317Z,4.35
2018-07-15T20:59:20.690Z,4.22
2018-07-15T21:01:49.083Z,3.75
2018-07-15T21:04:17.483Z,4.30
2018-07-15T21:06:45.844Z,4.15
2018-07-15T21:09:14.242Z,3.92
2018-07-15T21:11:42.608Z,3.60
2018-07-15T21:14:10.993Z,6.60
2018-07-15T21:16:39.439Z,6.65
2018-07-15T21:19:07.833Z,5.80
2018-07-15T21:21:37.036Z,4.87
2018-07-15T21:24:05.819Z,6.60
2018-07-15T21:26:34.203Z,7.20
2018-07-15T21:29:02.611Z,7.70
2018-07-15T21:31:31.047Z,5.20
2018-07-15T21:33:59.382Z,4.83
2018-07-15T21:36:27.716Z,4.60
2018-07-15T21:38:56.093Z,4.78
2018-07-15T21:41:24.460Z,5.00
2018-07-15T21:43:52.841Z,6.37
2018-07-15T21:46:21.211Z,5.75
2018-07-15T21:48:49.598Z,4.75
2018-07-15T21:51:18.051Z,4.40
2018-07-15T21:53:46.375Z,4.10
2018-07-15T21:56:14.805Z,4.33
2018-07-15T21:58:43.155Z,6.00
2018-07-15T22:01:11.502Z,4.90
2018-07-15T22:03:39.867Z,4.40
2018-07-15T22:06:18.183Z,4.12
2018-07-15T22:08:57.953Z,4.53
2018-07-15T22:11:26.317Z,5.85
2018-07-15T22:13:54.686Z,5.50
2018-07-15T22:16:23.027Z,4.20
2018-07-15T22:18:51.496Z,4.08
2018-07-15T22:21:19.905Z,4.12
2018-07-15T22:23:48.238Z,4.20
2018-07-15T22:26:16.575Z,3.10
2018-07-15T22:28:44.914Z,3.33
2018-07-15T22:31:13.353Z,3.72
2018-07-15T22:33:41.666Z,3.42
2018-07-15T22:36:10.044Z,3.52
2018-07-15T22:38:38.401Z,3.55
2018-07-15T22:41:06.825Z,3.40
2018-07-15T22:43:35.313Z,3.65
2018-07-15T22:46:03.679Z,4.33
2018-07-15T22:48:32.133Z,3.30
2018-07-15T22:51:00.498Z,3.27
2018-07-15T22:53:28.894Z,3.60
2018-07-15T22:55:57.269Z,3.20
2018-07-15T22:58:25.607Z,3.52
2018-07-15T23:00:54.008Z,3.42
2018-07-15T23:03:22.401Z,3.08
2018-07-15T23:05:57.236Z,3.08
2018-07-15T23:08:26.771Z,3.12
2018-07-15T23:10:55.178Z,2.67
2018-07-15T23:13:23.640Z,2.58
2018-07-15T23:15:52.036Z,3.27
2018-07-15T23:18:20.431Z,3.33
2018-07-15T23:20:49.601Z,3.80
2018-07-15T23:23:18.303Z,3.50
2018-07-15T23:25:46.712Z,3.35
2018-07-15T23:28:16.220Z,3.37
2018-07-15T23:30:45.025Z,3.95
2018-07-15T23:33:13.567Z,3.77
2018-07-15T23:35:42.027Z,4.08
2018-07-15T23:38:10.378Z,4.03
2018-07-15T23:40:38.770Z,3.85
2018-07-15T23:43:07.152Z,4.40
2018-07-15T23:45:36.170Z,4.33
2018-07-15T23:48:04.592Z,4.60
2018-07-15T23:50:32.973Z,5.10
2018-07-15T23:53:01.373Z,5.10
2018-07-15T23:55:29.792Z,5.17
2018-07-15T23:57:58.209Z,5.10
